createdAt,value
2023-04-24T00:00:15.871Z,11.70
2023-04-24T00:02:51.826Z,11.43
2023-04-24T00:05:25.810Z,11.27
2023-04-24T00:10:32.185Z,11.52
2023-04-24T00:13:05.594Z,10.07
2023-04-24T00:15:38.834Z,10.90
2023-04-24T00:18:13.379Z,10.90
2023-04-24T00:20:47.777Z,11.18
2023-04-24T00:23:21.046Z,10.65
2023-04-24T00:25:54.276Z,10.98
2023-04-24T00:28:27.467Z,10.38
2023-04-24T00:31:00.651Z,10.90
2023-04-24T00:33:35.254Z,9.98
2023-04-24T00:36:09.381Z,10.23
2023-04-24T00:38:42.576Z,10.55
2023-04-24T00:41:15.901Z,11.52
2023-04-24T00:43:49.260Z,10.60
2023-04-24T00:46:23.273Z,10.50
2023-04-24T00:48:58.617Z,9.35
2023-04-24T00:51:31.878Z,11.98
2023-04-24T00:54:05.168Z,9.77
2023-04-24T00:56:38.520Z,9.77
2023-04-24T00:59:12.027Z,9.93
2023-04-24T01:01:46.595Z,10.70
2023-04-24T01:04:21.507Z,10.98
2023-04-24T01:06:56.685Z,10.52
2023-04-24T01:09:29.922Z,10.65
2023-04-24T01:12:05.110Z,10.40
2023-04-24T01:14:39.239Z,10.20
2023-04-24T01:17:12.804Z,9.82
2023-04-24T01:19:47.337Z,11.00
2023-04-24T01:22:22.411Z,9.38
2023-04-24T01:24:55.985Z,9.57
2023-04-24T01:27:29.213Z,10.68
2023-04-24T01:30:02.459Z,9.68
2023-04-24T01:32:39.229Z,10.38
2023-04-24T01:35:12.663Z,9.93
2023-04-24T01:37:47.462Z,11.45
2023-04-24T01:40:20.762Z,9.70
2023-04-24T01:42:54.495Z,10.15
2023-04-24T01:48:02.228Z,8.60
2023-04-24T01:50:35.804Z,10.23
2023-04-24T01:53:12.449Z,10.05
2023-04-24T01:55:45.709Z,11.25
2023-04-24T01:58:20.225Z,10.25
2023-04-24T02:00:53.498Z,10.23
2023-04-24T02:03:28.172Z,10.63
2023-04-24T02:06:03.698Z,10.00
2023-04-24T02:08:39.252Z,9.73
2023-04-24T02:11:13.388Z,10.80
2023-04-24T02:13:46.630Z,9.50
2023-04-24T02:16:19.983Z,9.90
2023-04-24T02:18:53.214Z,9.82
2023-04-24T02:21:26.442Z,9.60
2023-04-24T02:24:01.022Z,10.68
2023-04-24T02:26:34.245Z,9.77
2023-04-24T02:29:07.439Z,9.98
2023-04-24T02:31:40.792Z,8.93
2023-04-24T02:34:13.979Z,8.80
2023-04-24T02:36:47.173Z,8.45
2023-04-24T02:39:23.280Z,9.73
2023-04-24T02:41:56.488Z,10.07
2023-04-24T02:44:29.713Z,9.50
2023-04-24T02:47:02.909Z,9.88
2023-04-24T02:49:37.558Z,10.05
2023-04-24T02:52:11.433Z,8.73
2023-04-24T02:54:46.078Z,9.70
2023-04-24T02:57:19.389Z,9.25
2023-04-24T02:59:52.672Z,9.23
2023-04-24T03:02:26.130Z,9.80
2023-04-24T03:04:59.529Z,9.77
2023-04-24T03:07:33.298Z,9.52
2023-04-24T03:12:41.984Z,9.25
2023-04-24T03:15:15.232Z,8.25
2023-04-24T03:17:49.098Z,10.38
2023-04-24T03:20:22.708Z,8.23
2023-04-24T03:25:30.587Z,9.70
2023-04-24T03:28:04.085Z,8.98
2023-04-24T03:30:52.238Z,8.43
2023-04-24T03:33:26.666Z,8.52
2023-04-24T03:36:09.459Z,8.80
2023-04-24T03:38:46.323Z,8.90
2023-04-24T03:41:50.480Z,9.40
2023-04-24T03:44:28.999Z,9.70
2023-04-24T03:47:02.209Z,9.85
2023-04-24T03:49:35.515Z,10.30
2023-04-24T03:52:09.201Z,8.73
2023-04-24T03:54:42.753Z,8.95
2023-04-24T03:57:17.462Z,9.30
2023-04-24T04:00:02.649Z,8.25
2023-04-24T04:02:36.970Z,9.15
2023-04-24T04:05:10.805Z,10.02
2023-04-24T04:07:44.050Z,9.27
2023-04-24T04:10:18.273Z,9.18
2023-04-24T04:12:52.854Z,9.82
2023-04-24T04:15:26.081Z,8.45
2023-04-24T04:17:59.377Z,9.13
2023-04-24T04:20:32.613Z,9.27
2023-04-24T04:23:06.252Z,8.98
2023-04-24T04:25:48.908Z,8.95
2023-04-24T04:28:25.679Z,9.50
2023-04-24T04:30:59.535Z,8.75
2023-04-24T04:33:33.065Z,9.30
2023-04-24T04:38:46.546Z,9.75
2023-04-24T04:41:50.007Z,9.60
2023-04-24T04:44:27.624Z,9.45
2023-04-24T04:47:04.891Z,9.35
2023-04-24T04:49:40.693Z,8.95
2023-04-24T04:52:20.016Z,9.75
2023-04-24T04:54:57.570Z,9.75
2023-04-24T04:57:37.771Z,9.50
2023-04-24T05:00:14.922Z,9.98
2023-04-24T05:02:54.721Z,8.95
2023-04-24T05:05:29.640Z,10.05
2023-04-24T05:08:04.489Z,10.00
2023-04-24T05:10:39.091Z,10.20
2023-04-24T05:15:49.191Z,9.27
2023-04-24T05:18:22.655Z,9.93
2023-04-24T05:20:56.647Z,9.90
2023-04-24T05:23:31.401Z,10.15
2023-04-24T05:26:07.414Z,9.88
2023-04-24T05:28:41.845Z,10.10
2023-04-24T05:31:19.558Z,9.63
2023-04-24T05:33:52.820Z,9.52
2023-04-24T05:36:26.229Z,9.35
2023-04-24T05:41:32.890Z,10.18
2023-04-24T05:44:06.294Z,9.90
2023-04-24T05:46:40.964Z,9.75
2023-04-24T05:49:15.139Z,9.60
2023-04-24T05:51:48.401Z,9.93
2023-04-24T05:54:23.079Z,9.25
2023-04-24T05:56:56.973Z,9.30
2023-04-24T05:59:41.165Z,9.73
2023-04-24T06:02:16.298Z,9.25
2023-04-24T06:04:49.611Z,9.13
2023-04-24T06:07:24.531Z,8.65
2023-04-24T06:09:57.906Z,9.48
2023-04-24T06:12:31.571Z,8.85
2023-04-24T06:15:10.197Z,8.95
2023-04-24T06:18:03.721Z,9.18
2023-04-24T06:20:37.242Z,8.73
2023-04-24T06:23:10.588Z,8.85
2023-04-24T06:25:43.898Z,9.05
2023-04-24T06:28:18.762Z,8.35
2023-04-24T06:30:51.966Z,8.80
2023-04-24T06:33:26.613Z,9.38
2023-04-24T06:35:59.882Z,8.45
2023-04-24T06:38:33.085Z,9.70
2023-04-24T06:41:06.710Z,9.68
2023-04-24T06:43:39.906Z,9.13
2023-04-24T06:46:13.203Z,8.77
2023-04-24T06:48:47.885Z,8.55
2023-04-24T06:51:21.053Z,9.75
2023-04-24T06:53:54.934Z,8.52
2023-04-24T06:59:03.043Z,8.85
2023-04-24T07:01:36.330Z,11.25
2023-04-24T07:04:11.093Z,9.40
2023-04-24T07:06:44.533Z,9.00
2023-04-24T07:09:19.347Z,9.45
2023-04-24T07:11:53.053Z,8.90
2023-04-24T07:14:26.517Z,9.60
2023-04-24T07:16:59.791Z,8.55
2023-04-24T07:19:36.296Z,8.52
2023-04-24T07:22:09.518Z,8.23
2023-04-24T07:24:42.767Z,9.38
2023-04-24T07:27:16.373Z,8.98
2023-04-24T07:29:49.867Z,9.38
2023-04-24T07:32:23.350Z,9.07
2023-04-24T07:34:58.195Z,9.15
2023-04-24T07:37:31.482Z,11.93
2023-04-24T07:40:05.394Z,10.25
2023-04-24T07:42:39.269Z,11.57
2023-04-24T07:45:12.563Z,10.43
2023-04-24T07:47:46.681Z,10.88
2023-04-24T07:50:21.821Z,9.38
2023-04-24T07:52:55.034Z,9.80
2023-04-24T07:55:28.503Z,10.52
2023-04-24T07:58:01.796Z,11.02
2023-04-24T08:00:35.198Z,9.95
2023-04-24T08:03:08.623Z,9.57
2023-04-24T08:05:44.166Z,10.50
2023-04-24T08:08:17.508Z,10.70
2023-04-24T08:10:50.908Z,11.27
2023-04-24T08:13:24.335Z,10.55
2023-04-24T08:15:59.013Z,10.05
2023-04-24T08:18:32.724Z,9.48
2023-04-24T08:21:07.847Z,10.15
2023-04-24T08:23:41.064Z,9.30
2023-04-24T08:26:14.838Z,10.20
2023-04-24T08:28:48.071Z,9.55
2023-04-24T08:31:21.464Z,9.35
2023-04-24T08:33:54.867Z,9.57
2023-04-24T08:36:43.539Z,8.27
2023-04-24T08:39:19.956Z,8.98
2023-04-24T08:41:54.112Z,9.23
2023-04-24T08:44:27.455Z,8.43
2023-04-24T08:47:01.266Z,10.00
2023-04-24T08:52:10.242Z,9.23
2023-04-24T08:54:46.515Z,7.70
2023-04-24T08:57:20.397Z,8.13
2023-04-24T08:59:54.720Z,8.25
2023-04-24T09:02:28.375Z,7.85
2023-04-24T09:05:02.396Z,7.95
2023-04-24T09:07:38.132Z,8.10
2023-04-24T09:10:11.962Z,8.63
2023-04-24T09:12:47.057Z,7.78
2023-04-24T09:15:21.441Z,7.80
2023-04-24T09:17:54.764Z,8.20
2023-04-24T09:20:28.056Z,7.07
2023-04-24T09:23:02.729Z,7.20
2023-04-24T09:25:37.408Z,7.55
2023-04-24T09:28:10.752Z,7.13
2023-04-24T09:30:43.915Z,8.00
2023-04-24T09:33:17.867Z,7.13
2023-04-24T09:35:51.992Z,7.07
2023-04-24T09:38:35.225Z,7.15
2023-04-24T09:41:10.841Z,7.20
2023-04-24T09:43:44.048Z,6.47
2023-04-24T09:46:22.408Z,5.90
2023-04-24T09:48:56.019Z,6.40
2023-04-24T09:51:37.372Z,7.18
2023-04-24T09:54:18.231Z,7.03
2023-04-24T09:56:52.752Z,6.45
2023-04-24T09:59:25.967Z,5.97
2023-04-24T10:02:00.109Z,6.35
2023-04-24T10:04:33.532Z,5.90
2023-04-24T10:07:10.173Z,6.45
2023-04-24T10:09:45.097Z,6.10
2023-04-24T10:12:18.525Z,6.65
2023-04-24T10:14:52.544Z,6.15
2023-04-24T10:17:27.823Z,5.88
2023-04-24T10:20:02.603Z,6.30
2023-04-24T10:22:35.931Z,6.10
2023-04-24T10:25:12.087Z,6.32
2023-04-24T10:27:45.315Z,7.05
2023-04-24T10:30:19.560Z,6.40
2023-04-24T10:32:52.847Z,6.53
2023-04-24T10:35:27.848Z,6.13
2023-04-24T10:38:05.145Z,6.38
2023-04-24T10:40:39.937Z,5.95
2023-04-24T10:43:18.780Z,5.95
2023-04-24T10:46:05.940Z,5.75
2023-04-24T10:48:45.247Z,5.93
2023-04-24T10:51:18.584Z,5.38
2023-04-24T10:53:52.347Z,5.93
2023-04-24T10:59:00.465Z,6.93
2023-04-24T11:01:34.514Z,5.90
2023-04-24T11:04:07.919Z,5.70
2023-04-24T11:06:44.332Z,5.82
2023-04-24T11:09:17.732Z,5.63
2023-04-24T11:11:52.262Z,6.35
2023-04-24T11:14:25.517Z,5.90
2023-04-24T11:16:59.071Z,5.13
2023-04-24T11:19:32.375Z,5.72
2023-04-24T11:22:06.875Z,6.00
2023-04-24T11:24:41.750Z,4.90
2023-04-24T11:27:25.409Z,5.60
2023-04-24T11:30:02.842Z,6.00
2023-04-24T11:32:40.490Z,5.38
2023-04-24T11:35:17.369Z,5.32
2023-04-24T11:40:28.424Z,5.85
2023-04-24T11:43:03.295Z,5.43
2023-04-24T11:45:36.703Z,5.05
2023-04-24T11:48:10.016Z,5.47
2023-04-24T11:50:49.094Z,5.20
2023-04-24T11:53:23.083Z,5.15
2023-04-24T11:55:56.331Z,5.05
2023-04-24T11:58:36.956Z,6.43
2023-04-24T12:01:10.251Z,6.13
2023-04-24T12:03:45.453Z,6.75
2023-04-24T12:06:20.079Z,6.10
2023-04-24T12:09:01.580Z,6.97
2023-04-24T12:11:37.813Z,6.55
2023-04-24T12:14:15.508Z,6.88
2023-04-24T12:16:50.235Z,6.22
2023-04-24T12:19:24.006Z,6.72
2023-04-24T12:24:37.213Z,6.43
2023-04-24T12:27:21.599Z,6.35
2023-04-24T12:29:58.930Z,6.47
2023-04-24T12:32:32.192Z,6.22
2023-04-24T12:35:08.069Z,6.65
2023-04-24T12:37:47.100Z,7.75
2023-04-24T12:40:22.225Z,8.00
2023-04-24T12:42:57.672Z,8.77
2023-04-24T12:45:32.792Z,7.53
2023-04-24T12:48:06.437Z,6.95
2023-04-24T12:50:40.735Z,7.10
2023-04-24T12:53:13.947Z,7.68
2023-04-24T12:55:48.019Z,8.00
2023-04-24T12:58:22.049Z,7.80
2023-04-24T13:00:56.754Z,6.50
2023-04-24T13:03:30.264Z,6.53
2023-04-24T13:06:03.649Z,6.32
2023-04-24T13:08:36.829Z,6.60
2023-04-24T13:11:10.093Z,7.15
2023-04-24T13:13:43.543Z,6.03
2023-04-24T13:16:18.401Z,6.22
2023-04-24T13:18:51.674Z,6.20
2023-04-24T13:21:24.940Z,7.25
2023-04-24T13:23:58.205Z,6.03
2023-04-24T13:26:31.545Z,6.70
2023-04-24T13:29:05.281Z,5.05
2023-04-24T13:31:39.919Z,6.63
2023-04-24T13:34:13.334Z,6.22
2023-04-24T13:36:47.023Z,6.53
2023-04-24T13:41:53.691Z,6.32
2023-04-24T13:44:27.861Z,5.88
2023-04-24T13:47:02.486Z,6.07
2023-04-24T13:49:36.227Z,6.35
2023-04-24T13:52:11.357Z,5.35
2023-04-24T13:54:44.625Z,6.38
2023-04-24T13:57:18.368Z,6.75
2023-04-24T13:59:52.078Z,5.90
2023-04-24T14:02:26.980Z,6.45
2023-04-24T14:05:00.581Z,6.13
2023-04-24T14:07:34.058Z,5.63
2023-04-24T14:10:08.112Z,6.15
2023-04-24T14:12:41.506Z,6.18
2023-04-24T14:15:15.177Z,5.97
2023-04-24T14:17:50.123Z,5.63
2023-04-24T14:20:23.368Z,6.00
2023-04-24T14:22:59.553Z,5.97
2023-04-24T14:25:32.824Z,5.35
2023-04-24T14:28:07.604Z,5.85
2023-04-24T14:30:41.789Z,6.10
2023-04-24T14:33:17.123Z,5.93
2023-04-24T14:35:51.247Z,6.28
2023-04-24T14:38:24.825Z,4.70
2023-04-24T14:41:07.278Z,5.53
2023-04-24T14:43:41.959Z,5.82
2023-04-24T14:46:15.234Z,5.55
2023-04-24T14:48:49.897Z,5.68
2023-04-24T14:51:23.202Z,5.65
2023-04-24T14:53:56.490Z,4.80
2023-04-24T14:56:29.724Z,5.78
2023-04-24T14:59:03.073Z,5.70
2023-04-24T15:01:36.281Z,4.68
2023-04-24T15:04:10.975Z,5.03
2023-04-24T15:06:44.424Z,5.55
2023-04-24T15:09:17.684Z,5.82
2023-04-24T15:11:51.232Z,4.95
2023-04-24T15:14:24.420Z,5.65
2023-04-24T15:16:57.749Z,5.47
2023-04-24T15:19:34.144Z,5.15
2023-04-24T15:22:07.363Z,4.75
2023-04-24T15:24:40.615Z,4.85
2023-04-24T15:27:14.069Z,5.15
2023-04-24T15:29:47.259Z,4.65
2023-04-24T15:32:20.508Z,5.25
2023-04-24T15:35:07.002Z,5.32
2023-04-24T15:37:43.072Z,5.00
2023-04-24T15:40:16.767Z,4.90
2023-04-24T15:45:23.017Z,4.60
2023-04-24T15:47:56.307Z,5.00
2023-04-24T15:50:30.824Z,5.30
2023-04-24T15:53:04.016Z,5.32
2023-04-24T15:55:37.364Z,5.40
2023-04-24T15:58:10.623Z,5.43
2023-04-24T16:00:43.864Z,4.57
2023-04-24T16:03:17.306Z,5.25
2023-04-24T16:10:58.738Z,4.47
2023-04-24T16:13:34.359Z,4.03
2023-04-24T16:16:07.913Z,5.45
2023-04-24T16:18:41.169Z,4.57
2023-04-24T16:21:15.786Z,4.55
2023-04-24T16:23:49.078Z,4.95
2023-04-24T16:26:22.478Z,4.93
2023-04-24T16:28:55.877Z,4.82
2023-04-24T16:31:29.144Z,4.65
2023-04-24T16:34:02.510Z,4.90
2023-04-24T16:36:37.208Z,4.47
2023-04-24T16:39:10.867Z,4.97
2023-04-24T16:41:44.182Z,4.60
2023-04-24T16:44:19.212Z,4.78
2023-04-24T16:46:52.757Z,5.47
2023-04-24T16:49:30.926Z,4.88
2023-04-24T16:52:05.869Z,5.18
2023-04-24T16:54:39.284Z,4.60
2023-04-24T16:57:12.534Z,4.50
2023-04-24T16:59:45.969Z,5.57
2023-04-24T17:02:19.282Z,4.38
2023-04-24T17:04:52.503Z,5.70
2023-04-24T17:07:27.177Z,5.85
2023-04-24T17:10:00.434Z,4.88
2023-04-24T17:12:33.633Z,5.35
2023-04-24T17:15:08.109Z,4.80
2023-04-24T17:17:42.644Z,5.72
2023-04-24T17:20:22.767Z,5.35
2023-04-24T17:22:58.101Z,5.78
2023-04-24T17:25:31.308Z,5.40
2023-04-24T17:28:05.131Z,5.97
2023-04-24T17:30:38.348Z,5.03
2023-04-24T17:33:11.578Z,5.88
2023-04-24T17:35:44.921Z,6.60
2023-04-24T17:38:19.959Z,5.28
2023-04-24T17:40:53.382Z,5.20
2023-04-24T17:43:27.117Z,5.68
2023-04-24T17:48:33.956Z,5.87
2023-04-24T17:51:07.146Z,5.15
2023-04-24T17:53:41.998Z,6.28
2023-04-24T17:56:15.543Z,5.70
2023-04-24T17:58:49.081Z,5.88
2023-04-24T18:01:24.158Z,4.93
2023-04-24T18:03:57.798Z,6.57
2023-04-24T18:06:31.464Z,5.88
2023-04-24T18:09:06.417Z,6.07
2023-04-24T18:11:39.645Z,6.10
2023-04-24T18:14:12.882Z,6.22
2023-04-24T18:16:46.122Z,6.25
2023-04-24T18:19:19.327Z,6.40
2023-04-24T18:21:52.507Z,6.85
2023-04-24T18:24:27.346Z,6.47
2023-04-24T18:27:01.671Z,6.30
2023-04-24T18:29:34.936Z,7.85
2023-04-24T18:32:08.299Z,6.85
2023-04-24T18:34:41.587Z,6.90
2023-04-24T18:37:14.950Z,6.18
2023-04-24T18:39:50.614Z,6.70
2023-04-24T18:42:24.164Z,7.18
2023-04-24T18:45:01.250Z,6.88
2023-04-24T18:47:34.660Z,6.63
2023-04-24T18:50:08.720Z,5.82
2023-04-24T18:52:42.030Z,6.75
2023-04-24T18:55:16.912Z,6.40
2023-04-24T18:57:50.193Z,6.38
2023-04-24T19:00:23.649Z,6.65
2023-04-24T19:02:56.961Z,7.00
2023-04-24T19:05:30.342Z,7.57
2023-04-24T19:08:03.544Z,7.00
2023-04-24T19:10:38.217Z,7.28
2023-04-24T19:13:11.453Z,6.38
2023-04-24T19:15:44.636Z,6.65
2023-04-24T19:18:18.096Z,7.55
2023-04-24T19:20:51.395Z,8.52
2023-04-24T19:23:25.021Z,5.90
2023-04-24T19:25:59.581Z,6.00
2023-04-24T19:28:32.870Z,7.32
2023-04-24T19:31:10.271Z,7.88
2023-04-24T19:33:43.528Z,7.18
2023-04-24T19:36:17.750Z,7.65
2023-04-24T19:38:51.621Z,7.07
2023-04-24T19:41:26.462Z,8.05
2023-04-24T19:43:59.753Z,6.97
2023-04-24T19:46:33.626Z,7.55
2023-04-24T19:49:07.014Z,7.40
2023-04-24T19:51:40.281Z,6.90
2023-04-24T19:54:13.847Z,7.82
2023-04-24T19:56:48.836Z,7.60
2023-04-24T19:59:22.050Z,8.02
2023-04-24T20:01:55.522Z,6.95
2023-04-24T20:07:02.391Z,7.68
2023-04-24T20:09:35.668Z,7.57
2023-04-24T20:12:10.316Z,7.90
2023-04-24T20:14:43.666Z,8.05
2023-04-24T20:17:17.502Z,8.27
2023-04-24T20:22:24.064Z,7.93
2023-04-24T20:24:57.343Z,7.90
2023-04-24T20:27:31.955Z,8.90
2023-04-24T20:30:06.413Z,7.95
2023-04-24T20:32:40.368Z,7.53
2023-04-24T20:35:13.696Z,7.60
2023-04-24T20:37:46.891Z,8.00
2023-04-24T20:40:20.227Z,8.13
2023-04-24T20:42:56.064Z,8.20
2023-04-24T20:45:29.618Z,7.95
2023-04-24T20:48:02.881Z,8.05
2023-04-24T20:50:40.515Z,8.15
2023-04-24T20:53:15.157Z,8.15
2023-04-24T20:55:48.629Z,8.48
2023-04-24T20:58:23.924Z,8.23
2023-04-24T21:00:57.221Z,7.57
2023-04-24T21:03:30.597Z,7.95
2023-04-24T21:06:03.979Z,7.75
2023-04-24T21:08:37.807Z,9.23
2023-04-24T21:13:45.662Z,8.43
2023-04-24T21:16:18.979Z,8.00
2023-04-24T21:18:52.280Z,7.63
2023-04-24T21:21:25.859Z,7.82
2023-04-24T21:23:59.086Z,7.47
2023-04-24T21:26:32.368Z,8.02
2023-04-24T21:29:07.037Z,9.32
2023-04-24T21:31:40.410Z,8.35
2023-04-24T21:34:13.710Z,7.35
2023-04-24T21:36:47.802Z,7.30
2023-04-24T21:39:21.096Z,7.53
2023-04-24T21:41:54.433Z,7.50
2023-04-24T21:44:29.000Z,8.48
2023-04-24T21:47:02.425Z,7.20
2023-04-24T21:49:35.711Z,7.70
2023-04-24T21:52:09.006Z,7.07
2023-04-24T21:54:42.218Z,8.07
2023-04-24T21:57:15.814Z,7.03
2023-04-24T21:59:50.516Z,7.60
2023-04-24T22:02:23.853Z,7.60
2023-04-24T22:04:57.456Z,6.90
2023-04-24T22:07:30.823Z,8.45
2023-04-24T22:10:05.252Z,7.25
2023-04-24T22:12:39.060Z,7.00
2023-04-24T22:15:13.777Z,7.45
2023-04-24T22:17:47.156Z,7.38
2023-04-24T22:20:21.592Z,7.60
2023-04-24T22:22:54.795Z,6.93
2023-04-24T22:25:27.972Z,7.43
2023-04-24T22:28:01.269Z,7.00
2023-04-24T22:30:35.812Z,7.65
2023-04-24T22:33:09.148Z,6.95
2023-04-24T22:35:42.606Z,7.05
2023-04-24T22:38:15.996Z,7.28
2023-04-24T22:40:49.245Z,6.82
2023-04-24T22:43:22.408Z,7.22
2023-04-24T22:45:56.987Z,6.55
2023-04-24T22:48:30.170Z,7.05
2023-04-24T22:51:03.596Z,6.88
2023-04-24T22:53:37.016Z,7.05
2023-04-24T22:56:10.251Z,6.35
2023-04-24T22:58:43.571Z,7.10
2023-04-24T23:01:18.340Z,7.10
2023-04-24T23:03:51.911Z,6.47
2023-04-24T23:06:25.987Z,6.90
2023-04-24T23:11:32.466Z,6.25
2023-04-24T23:14:05.677Z,6.40
2023-04-24T23:16:42.692Z,5.93
2023-04-24T23:19:16.060Z,6.15
2023-04-24T23:21:50.372Z,6.03
2023-04-24T23:24:24.287Z,6.22
2023-04-24T23:26:57.587Z,6.28
2023-04-24T23:29:30.750Z,6.53
2023-04-24T23:32:05.732Z,5.60
2023-04-24T23:34:39.418Z,6.22
2023-04-24T23:37:13.020Z,6.10
2023-04-24T23:39:46.225Z,5.65
2023-04-24T23:42:19.399Z,5.93
2023-04-24T23:44:52.569Z,5.32
2023-04-24T23:47:27.156Z,5.50
2023-04-24T23:50:00.403Z,5.82
2023-04-24T23:52:35.340Z,4.93
2023-04-24T23:55:09.743Z,5.65
2023-04-24T23:57:42.979Z,5.03
